sensor_id;sensor_type;location;lat;lon;timestamp;temperature;humidity
51559;DHT22;61650;48.882;2.092;2022-08-19T00:01:50;17.60;73.50
51559;DHT22;61650;48.882;2.092;2022-08-19T00:04:20;17.50;74.10
51559;DHT22;61650;48.882;2.092;2022-08-19T00:06:46;17.40;74.20
51559;DHT22;61650;48.882;2.092;2022-08-19T00:09:15;17.40;74.30
51559;DHT22;61650;48.882;2.092;2022-08-19T00:11:41;17.40;73.90
51559;DHT22;61650;48.882;2.092;2022-08-19T00:14:10;17.40;74.10
51559;DHT22;61650;48.882;2.092;2022-08-19T00:16:40;17.40;74.00
51559;DHT22;61650;48.882;2.092;2022-08-19T00:19:06;17.40;73.90
51559;DHT22;61650;48.882;2.092;2022-08-19T00:21:32;17.40;74.10
51559;DHT22;61650;48.882;2.092;2022-08-19T00:23:59;17.50;73.90
51559;DHT22;61650;48.882;2.092;2022-08-19T00:26:26;17.40;74.20
51559;DHT22;61650;48.882;2.092;2022-08-19T00:28:51;17.50;74.10
51559;DHT22;61650;48.882;2.092;2022-08-19T00:31:17;17.40;74.20
51559;DHT22;61650;48.882;2.092;2022-08-19T00:33:43;17.30;74.60
51559;DHT22;61650;48.882;2.092;2022-08-19T00:36:09;17.20;74.80
51559;DHT22;61650;48.882;2.092;2022-08-19T00:38:37;17.10;75.10
51559;DHT22;61650;48.882;2.092;2022-08-19T00:41:06;17.00;75.50
51559;DHT22;61650;48.882;2.092;2022-08-19T00:43:33;16.90;76.80
51559;DHT22;61650;48.882;2.092;2022-08-19T00:45:59;16.70;76.90
51559;DHT22;61650;48.882;2.092;2022-08-19T00:48:25;16.60;77.30
51559;DHT22;61650;48.882;2.092;2022-08-19T00:50:52;16.60;77.30
51559;DHT22;61650;48.882;2.092;2022-08-19T00:53:23;16.70;77.10
51559;DHT22;61650;48.882;2.092;2022-08-19T00:55:51;16.70;76.50
51559;DHT22;61650;48.882;2.092;2022-08-19T00:58:20;16.70;76.70
51559;DHT22;61650;48.882;2.092;2022-08-19T01:00:47;16.60;77.10
51559;DHT22;61650;48.882;2.092;2022-08-19T01:03:19;16.60;76.90
51559;DHT22;61650;48.882;2.092;2022-08-19T01:05:47;16.60;77.10
51559;DHT22;61650;48.882;2.092;2022-08-19T01:08:15;16.60;77.10
51559;DHT22;61650;48.882;2.092;2022-08-19T01:10:54;16.70;76.80
51559;DHT22;61650;48.882;2.092;2022-08-19T01:13:23;16.70;77.20
51559;DHT22;61650;48.882;2.092;2022-08-19T01:15:56;16.70;76.40
51559;DHT22;61650;48.882;2.092;2022-08-19T01:18:23;16.70;76.60
51559;DHT22;61650;48.882;2.092;2022-08-19T01:20:51;16.60;76.50
51559;DHT22;61650;48.882;2.092;2022-08-19T01:23:17;16.50;77.20
51559;DHT22;61650;48.882;2.092;2022-08-19T01:25:47;16.40;77.40
51559;DHT22;61650;48.882;2.092;2022-08-19T01:28:21;16.30;77.90
51559;DHT22;61650;48.882;2.092;2022-08-19T01:30:47;16.30;78.00
51559;DHT22;61650;48.882;2.092;2022-08-19T01:33:14;16.20;78.10
51559;DHT22;61650;48.882;2.092;2022-08-19T01:35:40;16.20;78.10
51559;DHT22;61650;48.882;2.092;2022-08-19T01:38:09;16.20;78.60
51559;DHT22;61650;48.882;2.092;2022-08-19T01:40:38;16.10;78.50
51559;DHT22;61650;48.882;2.092;2022-08-19T01:43:06;16.10;78.70
51559;DHT22;61650;48.882;2.092;2022-08-19T01:45:33;16.10;79.00
51559;DHT22;61650;48.882;2.092;2022-08-19T01:48:00;16.10;78.40
51559;DHT22;61650;48.882;2.092;2022-08-19T01:50:25;16.20;78.20
51559;DHT22;61650;48.882;2.092;2022-08-19T01:52:51;16.20;78.40
51559;DHT22;61650;48.882;2.092;2022-08-19T01:55:20;16.10;78.80
51559;DHT22;61650;48.882;2.092;2022-08-19T01:57:51;16.10;78.40
51559;DHT22;61650;48.882;2.092;2022-08-19T02:00:21;16.10;78.40
51559;DHT22;61650;48.882;2.092;2022-08-19T02:02:47;16.10;78.60
51559;DHT22;61650;48.882;2.092;2022-08-19T02:05:13;16.10;78.50
51559;DHT22;61650;48.882;2.092;2022-08-19T02:07:40;16.10;79.60
51559;DHT22;61650;48.882;2.092;2022-08-19T02:10:11;16.00;79.40
51559;DHT22;61650;48.882;2.092;2022-08-19T02:12:36;16.10;78.90
51559;DHT22;61650;48.882;2.092;2022-08-19T02:15:03;16.00;79.70
51559;DHT22;61650;48.882;2.092;2022-08-19T02:17:29;16.10;79.40
51559;DHT22;61650;48.882;2.092;2022-08-19T02:19:56;16.00;79.50
51559;DHT22;61650;48.882;2.092;2022-08-19T02:22:23;16.10;79.90
51559;DHT22;61650;48.882;2.092;2022-08-19T02:24:54;16.10;79.30
51559;DHT22;61650;48.882;2.092;2022-08-19T02:27:20;16.20;79.10
51559;DHT22;61650;48.882;2.092;2022-08-19T02:29:47;16.20;78.80
51559;DHT22;61650;48.882;2.092;2022-08-19T02:32:14;16.30;78.80
51559;DHT22;61650;48.882;2.092;2022-08-19T02:34:40;16.20;78.90
51559;DHT22;61650;48.882;2.092;2022-08-19T02:37:06;16.30;79.00
51559;DHT22;61650;48.882;2.092;2022-08-19T02:39:51;16.30;79.10
51559;DHT22;61650;48.882;2.092;2022-08-19T02:42:17;16.20;79.50
51559;DHT22;61650;48.882;2.092;2022-08-19T02:44:43;16.20;79.30
51559;DHT22;61650;48.882;2.092;2022-08-19T02:47:09;16.20;79.60
51559;DHT22;61650;48.882;2.092;2022-08-19T02:49:35;16.20;79.00
51559;DHT22;61650;48.882;2.092;2022-08-19T02:52:01;16.20;79.20
51559;DHT22;61650;48.882;2.092;2022-08-19T02:54:27;16.20;78.90
51559;DHT22;61650;48.882;2.092;2022-08-19T02:56:53;16.10;79.30
51559;DHT22;61650;48.882;2.092;2022-08-19T02:59:19;16.20;79.30
51559;DHT22;61650;48.882;2.092;2022-08-19T03:01:45;16.20;79.00
51559;DHT22;61650;48.882;2.092;2022-08-19T03:04:13;16.20;78.80
51559;DHT22;61650;48.882;2.092;2022-08-19T03:06:41;16.30;78.80
51559;DHT22;61650;48.882;2.092;2022-08-19T03:09:07;16.30;78.70
51559;DHT22;61650;48.882;2.092;2022-08-19T03:11:33;16.30;79.00
51559;DHT22;61650;48.882;2.092;2022-08-19T03:13:59;16.20;79.00
51559;DHT22;61650;48.882;2.092;2022-08-19T03:16:27;16.20;79.40
51559;DHT22;61650;48.882;2.092;2022-08-19T03:18:55;16.30;79.00
51559;DHT22;61650;48.882;2.092;2022-08-19T03:21:24;16.40;78.70
51559;DHT22;61650;48.882;2.092;2022-08-19T03:23:53;16.50;78.30
51559;DHT22;61650;48.882;2.092;2022-08-19T03:26:19;16.50;78.40
51559;DHT22;61650;48.882;2.092;2022-08-19T03:28:45;16.50;78.30
51559;DHT22;61650;48.882;2.092;2022-08-19T03:31:17;16.50;78.50
51559;DHT22;61650;48.882;2.092;2022-08-19T03:33:43;16.60;78.20
51559;DHT22;61650;48.882;2.092;2022-08-19T03:36:15;16.70;78.20
51559;DHT22;61650;48.882;2.092;2022-08-19T03:38:47;16.80;77.90
51559;DHT22;61650;48.882;2.092;2022-08-19T03:41:16;16.90;77.70
51559;DHT22;61650;48.882;2.092;2022-08-19T03:43:43;16.90;77.60
51559;DHT22;61650;48.882;2.092;2022-08-19T03:46:15;17.00;77.40
51559;DHT22;61650;48.882;2.092;2022-08-19T03:48:42;17.10;77.20
51559;DHT22;61650;48.882;2.092;2022-08-19T03:51:17;17.10;77.20
51559;DHT22;61650;48.882;2.092;2022-08-19T03:53:43;17.10;77.40
51559;DHT22;61650;48.882;2.092;2022-08-19T03:56:09;17.20;77.40
51559;DHT22;61650;48.882;2.092;2022-08-19T03:58:35;17.20;77.30
51559;DHT22;61650;48.882;2.092;2022-08-19T04:01:11;17.30;77.10
51559;DHT22;61650;48.882;2.092;2022-08-19T04:03:38;17.30;77.00
51559;DHT22;61650;48.882;2.092;2022-08-19T04:06:15;17.30;77.00
51559;DHT22;61650;48.882;2.092;2022-08-19T04:08:44;17.30;77.00
51559;DHT22;61650;48.882;2.092;2022-08-19T04:11:13;17.40;77.00
51559;DHT22;61650;48.882;2.092;2022-08-19T04:13:39;17.30;76.80
51559;DHT22;61650;48.882;2.092;2022-08-19T04:16:05;17.40;76.80
51559;DHT22;61650;48.882;2.092;2022-08-19T04:18:33;17.40;76.70
51559;DHT22;61650;48.882;2.092;2022-08-19T04:20:59;17.50;76.40
51559;DHT22;61650;48.882;2.092;2022-08-19T04:23:26;17.50;76.30
51559;DHT22;61650;48.882;2.092;2022-08-19T04:25:53;17.50;76.40
51559;DHT22;61650;48.882;2.092;2022-08-19T04:28:19;17.40;76.60
51559;DHT22;61650;48.882;2.092;2022-08-19T04:30:47;17.40;76.60
51559;DHT22;61650;48.882;2.092;2022-08-19T04:33:14;17.40;76.50
51559;DHT22;61650;48.882;2.092;2022-08-19T04:35:44;17.40;76.60
51559;DHT22;61650;48.882;2.092;2022-08-19T04:38:11;17.40;76.30
51559;DHT22;61650;48.882;2.092;2022-08-19T04:40:44;17.40;76.50
51559;DHT22;61650;48.882;2.092;2022-08-19T04:43:29;17.50;76.50
51559;DHT22;61650;48.882;2.092;2022-08-19T04:45:55;17.30;76.40
51559;DHT22;61650;48.882;2.092;2022-08-19T04:48:21;17.40;76.50
51559;DHT22;61650;48.882;2.092;2022-08-19T04:50:55;17.40;76.30
51559;DHT22;61650;48.882;2.092;2022-08-19T04:53:27;17.40;76.40
51559;DHT22;61650;48.882;2.092;2022-08-19T04:55:55;17.40;76.30
51559;DHT22;61650;48.882;2.092;2022-08-19T04:58:22;17.50;76.30
51559;DHT22;61650;48.882;2.092;2022-08-19T05:00:48;17.50;76.10
51559;DHT22;61650;48.882;2.092;2022-08-19T05:03:13;17.40;76.10
51559;DHT22;61650;48.882;2.092;2022-08-19T05:05:43;17.40;76.30
51559;DHT22;61650;48.882;2.092;2022-08-19T05:08:10;17.50;76.30
51559;DHT22;61650;48.882;2.092;2022-08-19T05:10:37;17.50;76.20
51559;DHT22;61650;48.882;2.092;2022-08-19T05:13:04;17.50;76.00
51559;DHT22;61650;48.882;2.092;2022-08-19T05:15:30;17.60;76.10
51559;DHT22;61650;48.882;2.092;2022-08-19T05:17:56;17.50;76.10
51559;DHT22;61650;48.882;2.092;2022-08-19T05:20:40;17.50;76.30
51559;DHT22;61650;48.882;2.092;2022-08-19T05:23:24;17.60;76.00
51559;DHT22;61650;48.882;2.092;2022-08-19T05:25:51;17.60;76.00
51559;DHT22;61650;48.882;2.092;2022-08-19T05:28:18;17.60;76.20
51559;DHT22;61650;48.882;2.092;2022-08-19T05:30:44;17.70;76.00
51559;DHT22;61650;48.882;2.092;2022-08-19T05:33:10;17.70;75.90
51559;DHT22;61650;48.882;2.092;2022-08-19T05:35:38;17.70;76.00
51559;DHT22;61650;48.882;2.092;2022-08-19T05:38:05;17.60;76.00
51559;DHT22;61650;48.882;2.092;2022-08-19T05:40:34;17.60;76.00
51559;DHT22;61650;48.882;2.092;2022-08-19T05:43:01;17.70;76.00
51559;DHT22;61650;48.882;2.092;2022-08-19T05:45:27;17.80;75.80
51559;DHT22;61650;48.882;2.092;2022-08-19T05:47:53;17.70;76.00
51559;DHT22;61650;48.882;2.092;2022-08-19T05:50:19;17.70;76.10
51559;DHT22;61650;48.882;2.092;2022-08-19T05:52:45;17.70;76.10
51559;DHT22;61650;48.882;2.092;2022-08-19T05:55:11;17.70;76.30
51559;DHT22;61650;48.882;2.092;2022-08-19T05:57:37;17.80;76.20
51559;DHT22;61650;48.882;2.092;2022-08-19T06:00:06;17.90;76.60
51559;DHT22;61650;48.882;2.092;2022-08-19T06:02:36;17.90;76.90
51559;DHT22;61650;48.882;2.092;2022-08-19T06:05:04;17.90;77.50
51559;DHT22;61650;48.882;2.092;2022-08-19T06:07:33;18.00;76.90
51559;DHT22;61650;48.882;2.092;2022-08-19T06:09:58;18.10;77.00
51559;DHT22;61650;48.882;2.092;2022-08-19T06:12:24;18.10;76.80
51559;DHT22;61650;48.882;2.092;2022-08-19T06:14:54;18.10;76.90
51559;DHT22;61650;48.882;2.092;2022-08-19T06:17:20;18.10;76.80
51559;DHT22;61650;48.882;2.092;2022-08-19T06:19:47;18.20;76.50
51559;DHT22;61650;48.882;2.092;2022-08-19T06:22:15;18.30;76.10
51559;DHT22;61650;48.882;2.092;2022-08-19T06:24:41;18.40;76.10
51559;DHT22;61650;48.882;2.092;2022-08-19T06:27:07;18.50;75.80
51559;DHT22;61650;48.882;2.092;2022-08-19T06:29:33;18.60;75.70
51559;DHT22;61650;48.882;2.092;2022-08-19T06:32:01;18.70;75.30
51559;DHT22;61650;48.882;2.092;2022-08-19T06:34:31;18.60;75.60
51559;DHT22;61650;48.882;2.092;2022-08-19T06:36:59;18.60;75.80
51559;DHT22;61650;48.882;2.092;2022-08-19T06:39:29;18.50;76.10
51559;DHT22;61650;48.882;2.092;2022-08-19T06:41:57;18.50;76.20
51559;DHT22;61650;48.882;2.092;2022-08-19T06:44:26;18.50;76.40
51559;DHT22;61650;48.882;2.092;2022-08-19T06:46:52;18.40;76.50
51559;DHT22;61650;48.882;2.092;2022-08-19T06:49:18;18.40;76.40
51559;DHT22;61650;48.882;2.092;2022-08-19T06:51:46;18.50;76.50
51559;DHT22;61650;48.882;2.092;2022-08-19T06:54:16;18.60;76.50
51559;DHT22;61650;48.882;2.092;2022-08-19T06:56:43;18.50;76.40
51559;DHT22;61650;48.882;2.092;2022-08-19T06:59:13;18.70;76.30
51559;DHT22;61650;48.882;2.092;2022-08-19T07:01:42;18.60;76.20
51559;DHT22;61650;48.882;2.092;2022-08-19T07:04:13;18.60;76.40
51559;DHT22;61650;48.882;2.092;2022-08-19T07:06:39;18.70;76.20
51559;DHT22;61650;48.882;2.092;2022-08-19T07:09:06;18.80;76.00
51559;DHT22;61650;48.882;2.092;2022-08-19T07:11:32;18.90;75.80
51559;DHT22;61650;48.882;2.092;2022-08-19T07:14:00;18.80;75.90
51559;DHT22;61650;48.882;2.092;2022-08-19T07:16:26;18.80;76.20
51559;DHT22;61650;48.882;2.092;2022-08-19T07:18:53;18.80;76.20
51559;DHT22;61650;48.882;2.092;2022-08-19T07:21:21;18.80;76.20
51559;DHT22;61650;48.882;2.092;2022-08-19T07:23:48;18.90;75.90
51559;DHT22;61650;48.882;2.092;2022-08-19T07:26:17;18.90;75.80
51559;DHT22;61650;48.882;2.092;2022-08-19T07:28:45;19.00;75.70
51559;DHT22;61650;48.882;2.092;2022-08-19T07:31:13;19.00;75.40
51559;DHT22;61650;48.882;2.092;2022-08-19T07:33:40;19.00;75.40
51559;DHT22;61650;48.882;2.092;2022-08-19T07:36:10;19.00;75.10
51559;DHT22;61650;48.882;2.092;2022-08-19T07:38:37;18.90;75.50
51559;DHT22;61650;48.882;2.092;2022-08-19T07:41:05;19.00;75.30
51559;DHT22;61650;48.882;2.092;2022-08-19T07:43:30;19.10;75.30
51559;DHT22;61650;48.882;2.092;2022-08-19T07:45:56;19.20;75.00
51559;DHT22;61650;48.882;2.092;2022-08-19T07:48:27;19.10;74.50
51559;DHT22;61650;48.882;2.092;2022-08-19T07:51:00;19.10;74.90
51559;DHT22;61650;48.882;2.092;2022-08-19T07:53:30;19.20;74.80
51559;DHT22;61650;48.882;2.092;2022-08-19T07:55:58;19.20;74.70
51559;DHT22;61650;48.882;2.092;2022-08-19T07:58:38;19.30;74.50
51559;DHT22;61650;48.882;2.092;2022-08-19T08:01:06;19.40;74.50
51559;DHT22;61650;48.882;2.092;2022-08-19T08:03:32;19.40;74.10
51559;DHT22;61650;48.882;2.092;2022-08-19T08:06:17;19.40;74.30
51559;DHT22;61650;48.882;2.092;2022-08-19T08:09:04;19.40;74.20
51559;DHT22;61650;48.882;2.092;2022-08-19T08:11:54;19.40;73.90
51559;DHT22;61650;48.882;2.092;2022-08-19T08:14:41;19.50;73.90
51559;DHT22;61650;48.882;2.092;2022-08-19T08:17:09;19.50;73.40
51559;DHT22;61650;48.882;2.092;2022-08-19T08:19:35;19.60;73.40
51559;DHT22;61650;48.882;2.092;2022-08-19T08:22:02;19.60;73.40
51559;DHT22;61650;48.882;2.092;2022-08-19T08:24:30;19.70;73.30
51559;DHT22;61650;48.882;2.092;2022-08-19T08:27:00;19.80;73.20
51559;DHT22;61650;48.882;2.092;2022-08-19T08:29:27;19.90;73.00
51559;DHT22;61650;48.882;2.092;2022-08-19T08:31:53;20.00;72.70
51559;DHT22;61650;48.882;2.092;2022-08-19T08:34:19;20.10;72.10
51559;DHT22;61650;48.882;2.092;2022-08-19T08:36:45;20.10;71.50
51559;DHT22;61650;48.882;2.092;2022-08-19T08:39:16;20.10;71.10
51559;DHT22;61650;48.882;2.092;2022-08-19T08:44:26;19.90;71.80
51559;DHT22;61650;48.882;2.092;2022-08-19T08:46:58;20.00;71.80
51559;DHT22;61650;48.882;2.092;2022-08-19T08:49:41;20.10;71.40
51559;DHT22;61650;48.882;2.092;2022-08-19T08:52:32;20.20;71.50
51559;DHT22;61650;48.882;2.092;2022-08-19T08:55:05;20.40;71.20
51559;DHT22;61650;48.882;2.092;2022-08-19T09:00:26;20.50;69.30
51559;DHT22;61650;48.882;2.092;2022-08-19T09:02:54;20.50;69.90
51559;DHT22;61650;48.882;2.092;2022-08-19T09:05:21;20.50;69.70
51559;DHT22;61650;48.882;2.092;2022-08-19T09:08:00;20.60;69.50
51559;DHT22;61650;48.882;2.092;2022-08-19T09:15:53;20.80;69.40
51559;DHT22;61650;48.882;2.092;2022-08-19T09:18:20;20.90;69.40
51559;DHT22;61650;48.882;2.092;2022-08-19T09:20:46;21.00;69.10
51559;DHT22;61650;48.882;2.092;2022-08-19T09:23:13;21.00;69.00
51559;DHT22;61650;48.882;2.092;2022-08-19T09:25:38;21.10;69.10
51559;DHT22;61650;48.882;2.092;2022-08-19T09:28:05;21.30;68.80
51559;DHT22;61650;48.882;2.092;2022-08-19T09:30:36;21.20;67.30
51559;DHT22;61650;48.882;2.092;2022-08-19T09:33:04;21.30;68.80
51559;DHT22;61650;48.882;2.092;2022-08-19T09:35:30;21.40;68.60
51559;DHT22;61650;48.882;2.092;2022-08-19T09:37:57;21.40;68.30
51559;DHT22;61650;48.882;2.092;2022-08-19T09:40:24;21.40;68.30
51559;DHT22;61650;48.882;2.092;2022-08-19T09:42:50;21.40;67.80
51559;DHT22;61650;48.882;2.092;2022-08-19T09:45:19;21.50;68.30
51559;DHT22;61650;48.882;2.092;2022-08-19T09:47:48;21.50;68.10
51559;DHT22;61650;48.882;2.092;2022-08-19T09:50:14;21.50;67.80
51559;DHT22;61650;48.882;2.092;2022-08-19T09:52:40;21.50;67.80
51559;DHT22;61650;48.882;2.092;2022-08-19T09:55:09;21.60;67.50
51559;DHT22;61650;48.882;2.092;2022-08-19T09:57:35;21.80;66.90
51559;DHT22;61650;48.882;2.092;2022-08-19T10:00:02;21.90;66.60
51559;DHT22;61650;48.882;2.092;2022-08-19T10:02:28;22.00;66.60
51559;DHT22;61650;48.882;2.092;2022-08-19T10:04:54;22.10;65.40
51559;DHT22;61650;48.882;2.092;2022-08-19T10:07:38;22.10;65.20
51559;DHT22;61650;48.882;2.092;2022-08-19T10:10:05;22.10;65.20
51559;DHT22;61650;48.882;2.092;2022-08-19T10:12:31;22.10;65.60
51559;DHT22;61650;48.882;2.092;2022-08-19T10:14:58;22.20;65.50
51559;DHT22;61650;48.882;2.092;2022-08-19T10:17:24;22.20;65.20
51559;DHT22;61650;48.882;2.092;2022-08-19T10:19:51;22.50;64.80
51559;DHT22;61650;48.882;2.092;2022-08-19T10:22:17;22.70;64.50
51559;DHT22;61650;48.882;2.092;2022-08-19T10:24:43;22.70;64.40
51559;DHT22;61650;48.882;2.092;2022-08-19T10:27:09;22.70;64.30
51559;DHT22;61650;48.882;2.092;2022-08-19T10:29:35;22.70;64.50
51559;DHT22;61650;48.882;2.092;2022-08-19T10:32:05;22.70;64.40
51559;DHT22;61650;48.882;2.092;2022-08-19T10:34:32;22.60;64.00
51559;DHT22;61650;48.882;2.092;2022-08-19T10:36:59;22.60;64.30
51559;DHT22;61650;48.882;2.092;2022-08-19T10:39:26;22.60;63.50
51559;DHT22;61650;48.882;2.092;2022-08-19T10:41:53;22.60;64.00
51559;DHT22;61650;48.882;2.092;2022-08-19T10:44:21;22.70;63.90
51559;DHT22;61650;48.882;2.092;2022-08-19T10:46:48;22.80;64.00
51559;DHT22;61650;48.882;2.092;2022-08-19T10:49:13;22.70;63.30
51559;DHT22;61650;48.882;2.092;2022-08-19T10:51:40;22.70;64.00
51559;DHT22;61650;48.882;2.092;2022-08-19T10:54:25;22.70;64.00
51559;DHT22;61650;48.882;2.092;2022-08-19T10:57:10;22.60;63.60
51559;DHT22;61650;48.882;2.092;2022-08-19T10:59:36;22.70;63.10
51559;DHT22;61650;48.882;2.092;2022-08-19T11:02:05;22.70;63.50
51559;DHT22;61650;48.882;2.092;2022-08-19T11:04:31;22.70;63.30
51559;DHT22;61650;48.882;2.092;2022-08-19T11:06:58;22.80;61.90
51559;DHT22;61650;48.882;2.092;2022-08-19T11:09:25;22.80;62.40
51559;DHT22;61650;48.882;2.092;2022-08-19T11:11:53;22.90;62.80
51559;DHT22;61650;48.882;2.092;2022-08-19T11:14:20;22.90;62.30
51559;DHT22;61650;48.882;2.092;2022-08-19T11:16:47;22.80;62.70
51559;DHT22;61650;48.882;2.092;2022-08-19T11:19:14;22.70;63.20
51559;DHT22;61650;48.882;2.092;2022-08-19T11:21:44;22.60;63.60
51559;DHT22;61650;48.882;2.092;2022-08-19T11:24:12;22.50;64.00
51559;DHT22;61650;48.882;2.092;2022-08-19T11:26:39;22.40;62.90
51559;DHT22;61650;48.882;2.092;2022-08-19T11:29:08;22.50;62.90
51559;DHT22;61650;48.882;2.092;2022-08-19T11:31:37;22.50;63.30
51559;DHT22;61650;48.882;2.092;2022-08-19T11:34:06;22.40;63.40
51559;DHT22;61650;48.882;2.092;2022-08-19T11:36:33;22.40;63.20
51559;DHT22;61650;48.882;2.092;2022-08-19T11:38:59;22.40;63.30
51559;DHT22;61650;48.882;2.092;2022-08-19T11:41:25;22.40;63.20
51559;DHT22;61650;48.882;2.092;2022-08-19T11:43:52;22.40;63.50
51559;DHT22;61650;48.882;2.092;2022-08-19T11:46:22;22.30;63.60
51559;DHT22;61650;48.882;2.092;2022-08-19T11:48:48;22.30;62.90
51559;DHT22;61650;48.882;2.092;2022-08-19T11:51:17;22.40;63.00
51559;DHT22;61650;48.882;2.092;2022-08-19T11:53:44;22.40;63.10
51559;DHT22;61650;48.882;2.092;2022-08-19T11:56:11;22.40;63.00
51559;DHT22;61650;48.882;2.092;2022-08-19T11:58:37;22.40;63.00
51559;DHT22;61650;48.882;2.092;2022-08-19T12:01:06;22.40;62.60
51559;DHT22;61650;48.882;2.092;2022-08-19T12:03:32;22.50;62.60
51559;DHT22;61650;48.882;2.092;2022-08-19T12:06:02;22.60;62.70
51559;DHT22;61650;48.882;2.092;2022-08-19T12:08:28;22.60;62.60
51559;DHT22;61650;48.882;2.092;2022-08-19T12:10:54;22.60;62.60
51559;DHT22;61650;48.882;2.092;2022-08-19T12:13:19;22.50;62.90
51559;DHT22;61650;48.882;2.092;2022-08-19T12:15:46;22.50;62.90
51559;DHT22;61650;48.882;2.092;2022-08-19T12:18:12;22.60;63.10
51559;DHT22;61650;48.882;2.092;2022-08-19T12:20:40;22.60;63.00
51559;DHT22;61650;48.882;2.092;2022-08-19T12:23:08;22.50;63.10
51559;DHT22;61650;48.882;2.092;2022-08-19T12:25:35;22.60;63.10
51559;DHT22;61650;48.882;2.092;2022-08-19T12:28:02;22.50;63.00
51559;DHT22;61650;48.882;2.092;2022-08-19T12:30:27;22.50;63.00
51559;DHT22;61650;48.882;2.092;2022-08-19T12:32:53;22.50;62.50
51559;DHT22;61650;48.882;2.092;2022-08-19T12:35:19;22.50;62.90
51559;DHT22;61650;48.882;2.092;2022-08-19T12:37:48;22.60;62.90
51559;DHT22;61650;48.882;2.092;2022-08-19T12:40:15;22.60;62.90
51559;DHT22;61650;48.882;2.092;2022-08-19T12:42:42;22.60;62.60
51559;DHT22;61650;48.882;2.092;2022-08-19T12:45:12;22.70;62.70
51559;DHT22;61650;48.882;2.092;2022-08-19T12:47:39;22.80;62.60
51559;DHT22;61650;48.882;2.092;2022-08-19T12:50:06;22.90;62.60
51559;DHT22;61650;48.882;2.092;2022-08-19T12:52:34;23.00;62.20
51559;DHT22;61650;48.882;2.092;2022-08-19T12:55:03;23.20;61.80
51559;DHT22;61650;48.882;2.092;2022-08-19T12:57:30;23.40;61.20
51559;DHT22;61650;48.882;2.092;2022-08-19T13:00:10;23.70;60.50
51559;DHT22;61650;48.882;2.092;2022-08-19T13:02:42;24.00;59.70
51559;DHT22;61650;48.882;2.092;2022-08-19T13:05:12;24.40;58.60
51559;DHT22;61650;48.882;2.092;2022-08-19T13:07:39;25.30;55.60
51559;DHT22;61650;48.882;2.092;2022-08-19T13:10:10;25.50;56.10
51559;DHT22;61650;48.882;2.092;2022-08-19T13:12:37;25.80;55.80
51559;DHT22;61650;48.882;2.092;2022-08-19T13:15:03;26.20;54.80
51559;DHT22;61650;48.882;2.092;2022-08-19T13:17:29;26.10;54.20
51559;DHT22;61650;48.882;2.092;2022-08-19T13:19:54;25.80;55.70
51559;DHT22;61650;48.882;2.092;2022-08-19T13:22:20;25.20;56.60
51559;DHT22;61650;48.882;2.092;2022-08-19T13:24:45;24.70;57.70
51559;DHT22;61650;48.882;2.092;2022-08-19T13:27:11;24.50;58.20
51559;DHT22;61650;48.882;2.092;2022-08-19T13:29:36;24.10;58.30
51559;DHT22;61650;48.882;2.092;2022-08-19T13:32:20;24.00;57.70
51559;DHT22;61650;48.882;2.092;2022-08-19T13:35:05;23.90;58.90
51559;DHT22;61650;48.882;2.092;2022-08-19T13:37:31;23.80;59.20
51559;DHT22;61650;48.882;2.092;2022-08-19T13:40:24;23.70;59.00
51559;DHT22;61650;48.882;2.092;2022-08-19T13:42:53;23.60;59.40
51559;DHT22;61650;48.882;2.092;2022-08-19T13:45:21;23.60;59.60
51559;DHT22;61650;48.882;2.092;2022-08-19T13:47:49;23.50;59.70
51559;DHT22;61650;48.882;2.092;2022-08-19T13:50:18;23.50;59.80
51559;DHT22;61650;48.882;2.092;2022-08-19T13:52:44;23.40;60.00
51559;DHT22;61650;48.882;2.092;2022-08-19T13:55:11;23.40;60.10
51559;DHT22;61650;48.882;2.092;2022-08-19T13:57:36;23.50;59.90
51559;DHT22;61650;48.882;2.092;2022-08-19T14:00:12;23.60;60.10
51559;DHT22;61650;48.882;2.092;2022-08-19T14:02:39;23.70;59.50
51559;DHT22;61650;48.882;2.092;2022-08-19T14:05:07;24.00;58.70
51559;DHT22;61650;48.882;2.092;2022-08-19T14:07:33;24.30;58.40
51559;DHT22;61650;48.882;2.092;2022-08-19T14:09:59;24.40;57.20
51559;DHT22;61650;48.882;2.092;2022-08-19T14:12:25;24.40;58.10
51559;DHT22;61650;48.882;2.092;2022-08-19T14:14:50;24.30;58.10
51559;DHT22;61650;48.882;2.092;2022-08-19T14:17:16;24.30;58.50
51559;DHT22;61650;48.882;2.092;2022-08-19T14:19:42;24.30;58.80
51559;DHT22;61650;48.882;2.092;2022-08-19T14:22:08;24.20;58.80
51559;DHT22;61650;48.882;2.092;2022-08-19T14:24:34;24.20;59.00
51559;DHT22;61650;48.882;2.092;2022-08-19T14:27:02;24.00;58.00
51559;DHT22;61650;48.882;2.092;2022-08-19T14:29:28;23.90;59.20
51559;DHT22;61650;48.882;2.092;2022-08-19T14:31:54;23.80;60.00
51559;DHT22;61650;48.882;2.092;2022-08-19T14:34:21;23.70;59.90
51559;DHT22;61650;48.882;2.092;2022-08-19T14:36:47;23.60;60.10
51559;DHT22;61650;48.882;2.092;2022-08-19T14:39:13;23.60;60.50
51559;DHT22;61650;48.882;2.092;2022-08-19T14:41:40;23.50;60.60
51559;DHT22;61650;48.882;2.092;2022-08-19T14:44:07;23.40;61.40
51559;DHT22;61650;48.882;2.092;2022-08-19T14:46:35;23.30;61.40
51559;DHT22;61650;48.882;2.092;2022-08-19T14:49:01;23.10;64.00
51559;DHT22;61650;48.882;2.092;2022-08-19T14:51:27;22.90;64.60
51559;DHT22;61650;48.882;2.092;2022-08-19T14:53:53;22.80;65.10
51559;DHT22;61650;48.882;2.092;2022-08-19T14:56:22;22.80;65.60
51559;DHT22;61650;48.882;2.092;2022-08-19T14:58:48;22.90;64.90
51559;DHT22;61650;48.882;2.092;2022-08-19T15:01:17;23.10;64.20
51559;DHT22;61650;48.882;2.092;2022-08-19T15:03:46;23.20;64.30
51559;DHT22;61650;48.882;2.092;2022-08-19T15:06:12;23.20;64.50
51559;DHT22;61650;48.882;2.092;2022-08-19T15:08:40;23.30;62.20
51559;DHT22;61650;48.882;2.092;2022-08-19T15:11:14;23.20;61.20
51559;DHT22;61650;48.882;2.092;2022-08-19T15:13:41;23.20;61.70
51559;DHT22;61650;48.882;2.092;2022-08-19T15:16:07;23.20;61.90
51559;DHT22;61650;48.882;2.092;2022-08-19T15:18:33;23.20;61.50
51559;DHT22;61650;48.882;2.092;2022-08-19T15:21:00;23.20;62.00
51559;DHT22;61650;48.882;2.092;2022-08-19T15:23:27;23.00;63.10
51559;DHT22;61650;48.882;2.092;2022-08-19T15:25:52;22.80;64.20
51559;DHT22;61650;48.882;2.092;2022-08-19T15:28:23;22.60;65.20
51559;DHT22;61650;48.882;2.092;2022-08-19T15:30:49;22.50;66.60
51559;DHT22;61650;48.882;2.092;2022-08-19T15:33:16;22.40;67.60
51559;DHT22;61650;48.882;2.092;2022-08-19T15:35:43;22.40;68.30
51559;DHT22;61650;48.882;2.092;2022-08-19T15:38:09;22.40;68.00
51559;DHT22;61650;48.882;2.092;2022-08-19T15:40:38;22.40;67.90
51559;DHT22;61650;48.882;2.092;2022-08-19T15:43:03;22.40;69.40
51559;DHT22;61650;48.882;2.092;2022-08-19T15:45:29;22.30;69.50
51559;DHT22;61650;48.882;2.092;2022-08-19T15:48:01;22.30;68.80